Terminal Aerodrome Forecast
Issued by NWS Jackson, MS

Home | Current Version | Previous Version | Text Only | Print | Product List | Glossary On
Versions: 1 2 3 4 5 6 7 8 9 10 11 12 13 14 15
676
FTUS44 KJAN 281431 AAA
TAFJAN
TAF AMD
KJAN 281431Z 2815/0112 18015G23KT P6SM BKN015 BKN025
     FM282000 18015G23KT P6SM BKN025 BKN050
     FM010000 17012KT P6SM BKN015 OVC050
     FM010600 18015G22KT P6SM OVC010=

USA.gov is the U.S. government's official web portal to all federal, state and local government web resources and services.